Terminal Aerodrome Forecast
Issued by NWS

Home | Current Version | Previous Version | Text Only | Print | Product List | Glossary On
Versions: 1 2 3 4 5 6 7 8 9 10 11 12 13 14 15 16 17 18 19 20 21
000
FTUS44 KLZK 251100
TAFBPK
TAF
KBPK 251136Z 2512/2612 19010KT P6SM SCT010 WS020/22045KT
     FM251500 23012G22KT P6SM SCT020 WS020/24045KT
     FM251800 26012G25KT P6SM SCT040=

USA.gov is the U.S. government's official web portal to all federal, state and local government web resources and services.